Terminal Aerodrome Forecast
Issued by NWS Newport/Morehead City, NC

Home | Current Version | Previous Version | Text Only | Print | Product List | Glossary On
Versions: 1 2 3 4 5 6 7 8 9 10 11 12 13 14 15 16 17 18
716
FTUS42 KMHX 241124
TAFEWN
TAF
KEWN 241124Z 2412/2512 03005KT P6SM SCT250
     FM241600 05009KT P6SM SCT200
     FM250500 04005KT P6SM SCT250=

USA.gov is the U.S. government's official web portal to all federal, state and local government web resources and services.